PWSweather.com
Personal Weather Stations
Station Observations
KPAAUBUR15
Lake Wynonah, Auburn, PA 17922

Lake WynonahAuburn, PA 17922

Lat: 40.582723, Lon: -76.193106

Elevation: 724

Station Type: Davis Vantage Pro2

http://WynonahWeather.com

High Low Average
Temperature 37.5°F3.1°C 27.6°F-2.4°C 32.5°F0.3°C
Dew Point 32.8°F0.4°C 25.8°F-3.4°C 28.9°F-1.7°C
Winds 6.9 mph 11.1 kmh Calm Calm 1.0 mph S1.6 kmh S
Wind Gusts 8.1 mph13.0 kmh -- 2.0 mph3.2 kmh
Humidity 98% 73% 87%
Pressure 30.46 in1031.5 mb 30.09 in1019.0 mb -
Precipitation 0.12 in3.0 mm - -
Hour Temp Dew Point Humidity Winds Wind Gusts Pressure Precip Precip Rate Daily Precip Total
12:00 AM 31.0°F-0.6°C 27.9°F-2.3°C 88% Calm Calm -- 30.43 in1030.5 mb - 0.00 in0.0 mm 0.00 in0.0 mm
12:05 AM 30.9°F-0.6°C 27.8°F-2.3°C 88% Calm Calm -- 30.43 in1030.5 mb - 0.00 in0.0 mm 0.00 in0.0 mm
12:10 AM 30.9°F-0.6°C 27.8°F-2.3°C 88% Calm Calm -- 30.44 in1030.8 mb - 0.00 in0.0 mm 0.00 in0.0 mm
12:15 AM 30.9°F-0.6°C 27.8°F-2.3°C 88% Calm Calm -- 30.44 in1030.8 mb - 0.00 in0.0 mm 0.00 in0.0 mm
12:20 AM 30.8°F-0.7°C 27.7°F-2.4°C 88% Calm Calm -- 30.44 in1030.8 mb - 0.00 in0.0 mm 0.00 in0.0 mm
12:25 AM 30.8°F-0.7°C 27.4°F-2.6°C 87% Calm Calm -- 30.44 in1030.8 mb - 0.00 in0.0 mm 0.00 in0.0 mm
12:30 AM 30.9°F-0.6°C 27.8°F-2.3°C 88% Calm Calm -- 30.44 in1030.8 mb - 0.00 in0.0 mm 0.00 in0.0 mm
12:35 AM 30.8°F-0.7°C 27.7°F-2.4°C 88% Calm Calm -- 30.44 in1030.8 mb - 0.00 in0.0 mm 0.00 in0.0 mm
12:40 AM 30.8°F-0.7°C 27.7°F-2.4°C 88% Calm Calm -- 30.44 in1030.8 mb - 0.00 in0.0 mm 0.00 in0.0 mm
12:45 AM 30.8°F-0.7°C 27.7°F-2.4°C 88% Calm Calm -- 30.44 in1030.8 mb - 0.00 in0.0 mm 0.00 in0.0 mm
12:50 AM 30.7°F-0.7°C 27.6°F-2.4°C 88% Calm Calm -- 30.44 in1030.8 mb - 0.00 in0.0 mm 0.00 in0.0 mm
12:55 AM 30.6°F-0.8°C 27.2°F-2.7°C 87% Calm Calm -- 30.44 in1030.8 mb - 0.00 in0.0 mm 0.00 in0.0 mm
01:00 AM 30.5°F-0.8°C 27.1°F-2.7°C 87% Calm Calm -- 30.44 in1030.8 mb - 0.00 in0.0 mm 0.00 in0.0 mm
01:05 AM 30.3°F-0.9°C 26.9°F-2.8°C 87% Calm Calm -- 30.44 in1030.8 mb - 0.00 in0.0 mm 0.00 in0.0 mm
01:10 AM 30.2°F-1.0°C 27.1°F-2.7°C 88% Calm Calm -- 30.44 in1030.8 mb - 0.00 in0.0 mm 0.00 in0.0 mm
01:15 AM 30.2°F-1.0°C 27.1°F-2.7°C 88% Calm Calm -- 30.43 in1030.5 mb - 0.00 in0.0 mm 0.00 in0.0 mm
01:20 AM 30.1°F-1.1°C 27.3°F-2.6°C 89% Calm Calm -- 30.44 in1030.8 mb - 0.00 in0.0 mm 0.00 in0.0 mm
01:25 AM 30.1°F-1.1°C 27.3°F-2.6°C 89% Calm Calm -- 30.44 in1030.8 mb - 0.00 in0.0 mm 0.00 in0.0 mm
01:30 AM 30.1°F-1.1°C 27.3°F-2.6°C 89% Calm Calm -- 30.44 in1030.8 mb - 0.00 in0.0 mm 0.00 in0.0 mm
01:35 AM 30.1°F-1.1°C 27.5°F-2.5°C 90% Calm Calm -- 30.44 in1030.8 mb - 0.00 in0.0 mm 0.00 in0.0 mm
01:40 AM 30.1°F-1.1°C 27.2°F-2.7°C 89% Calm Calm -- 30.45 in1031.2 mb - 0.00 in0.0 mm 0.00 in0.0 mm
01:45 AM 30.0°F-1.1°C 27.2°F-2.7°C 89% Calm Calm -- 30.45 in1031.2 mb - 0.00 in0.0 mm 0.00 in0.0 mm
01:50 AM 29.9°F-1.2°C 27.1°F-2.7°C 89% Calm Calm -- 30.45 in1031.2 mb - 0.00 in0.0 mm 0.00 in0.0 mm
01:55 AM 29.9°F-1.2°C 27.1°F-2.7°C 89% Calm Calm -- 30.45 in1031.2 mb - 0.00 in0.0 mm 0.00 in0.0 mm
02:00 AM 29.9°F-1.2°C 27.1°F-2.7°C 89% Calm Calm -- 30.45 in1031.2 mb - 0.00 in0.0 mm 0.00 in0.0 mm
02:05 AM 29.8°F-1.2°C 26.7°F-2.9°C 88% Calm Calm -- 30.45 in1031.2 mb - 0.00 in0.0 mm 0.00 in0.0 mm
02:10 AM 29.8°F-1.2°C 26.7°F-2.9°C 88% Calm Calm -- 30.45 in1031.2 mb - 0.00 in0.0 mm 0.00 in0.0 mm
02:15 AM 29.8°F-1.2°C 27.0°F-2.8°C 89% Calm Calm -- 30.46 in1031.5 mb - 0.00 in0.0 mm 0.00 in0.0 mm
02:20 AM 29.8°F-1.2°C 27.0°F-2.8°C 89% Calm Calm -- 30.45 in1031.2 mb - 0.00 in0.0 mm 0.00 in0.0 mm
02:25 AM 29.8°F-1.2°C 27.0°F-2.8°C 89% Calm Calm -- 30.46 in1031.5 mb - 0.00 in0.0 mm 0.00 in0.0 mm
02:30 AM 29.7°F-1.3°C 26.9°F-2.8°C 89% Calm Calm -- 30.46 in1031.5 mb - 0.00 in0.0 mm 0.00 in0.0 mm
02:35 AM 29.7°F-1.3°C 26.9°F-2.8°C 89% Calm Calm -- 30.46 in1031.5 mb - 0.00 in0.0 mm 0.00 in0.0 mm
02:40 AM 29.6°F-1.3°C 26.5°F-3.1°C 88% Calm Calm -- 30.46 in1031.5 mb - 0.00 in0.0 mm 0.00 in0.0 mm
02:45 AM 29.6°F-1.3°C 26.5°F-3.1°C 88% Calm Calm -- 30.46 in1031.5 mb - 0.00 in0.0 mm 0.00 in0.0 mm
02:50 AM 29.6°F-1.3°C 26.8°F-2.9°C 89% Calm Calm -- 30.46 in1031.5 mb - 0.00 in0.0 mm 0.00 in0.0 mm
02:55 AM 29.5°F-1.4°C 26.7°F-2.9°C 89% Calm Calm -- 30.46 in1031.5 mb - 0.00 in0.0 mm 0.00 in0.0 mm
03:00 AM 29.5°F-1.4°C 26.6°F-3.0°C 89% Calm Calm -- 30.46 in1031.5 mb - 0.00 in0.0 mm 0.00 in0.0 mm
03:05 AM 29.4°F-1.4°C 26.3°F-3.2°C 88% Calm Calm -- 30.45 in1031.2 mb - 0.00 in0.0 mm 0.00 in0.0 mm
03:10 AM 29.3°F-1.5°C 26.2°F-3.2°C 88% Calm Calm -- 30.45 in1031.2 mb - 0.00 in0.0 mm 0.00 in0.0 mm
03:15 AM 29.2°F-1.6°C 26.1°F-3.3°C 88% Calm Calm -- 30.45 in1031.2 mb - 0.00 in0.0 mm 0.00 in0.0 mm
03:20 AM 29.2°F-1.6°C 26.1°F-3.3°C 88% Calm Calm -- 30.45 in1031.2 mb - 0.00 in0.0 mm 0.00 in0.0 mm
03:25 AM 29.1°F-1.6°C 26.0°F-3.3°C 88% Calm Calm -- 30.45 in1031.2 mb - 0.00 in0.0 mm 0.00 in0.0 mm
03:30 AM 29.0°F-1.7°C 25.9°F-3.4°C 88% Calm Calm -- 30.45 in1031.2 mb - 0.00 in0.0 mm 0.00 in0.0 mm
03:35 AM 29.0°F-1.7°C 26.2°F-3.2°C 89% Calm Calm -- 30.45 in1031.2 mb - 0.00 in0.0 mm 0.00 in0.0 mm
03:40 AM 28.9°F-1.7°C 26.1°F-3.3°C 89% Calm Calm -- 30.44 in1030.8 mb - 0.00 in0.0 mm 0.00 in0.0 mm
03:45 AM 28.9°F-1.7°C 26.1°F-3.3°C 89% Calm Calm -- 30.45 in1031.2 mb - 0.00 in0.0 mm 0.00 in0.0 mm
03:50 AM 28.9°F-1.7°C 26.3°F-3.2°C 90% Calm Calm -- 30.44 in1030.8 mb - 0.00 in0.0 mm 0.00 in0.0 mm
03:55 AM 28.9°F-1.7°C 26.4°F-3.1°C 90% Calm Calm -- 30.44 in1030.8 mb - 0.00 in0.0 mm 0.00 in0.0 mm
04:00 AM 28.9°F-1.7°C 26.3°F-3.2°C 90% Calm Calm -- 30.43 in1030.5 mb - 0.00 in0.0 mm 0.00 in0.0 mm
04:05 AM 28.9°F-1.7°C 26.3°F-3.2°C 90% Calm Calm -- 30.43 in1030.5 mb - 0.00 in0.0 mm 0.00 in0.0 mm
04:10 AM 28.9°F-1.7°C 26.3°F-3.2°C 90% Calm Calm -- 30.43 in1030.5 mb - 0.00 in0.0 mm 0.00 in0.0 mm
04:15 AM 28.8°F-1.8°C 26.2°F-3.2°C 90% Calm Calm -- 30.43 in1030.5 mb - 0.00 in0.0 mm 0.00 in0.0 mm
04:20 AM 28.7°F-1.8°C 26.2°F-3.2°C 90% Calm Calm -- 30.43 in1030.5 mb - 0.00 in0.0 mm 0.00 in0.0 mm
04:25 AM 28.7°F-1.8°C 26.1°F-3.3°C 90% Calm Calm -- 30.42 in1030.1 mb - 0.00 in0.0 mm 0.00 in0.0 mm
04:30 AM 28.8°F-1.8°C 26.5°F-3.1°C 91% Calm Calm -- 30.42 in1030.1 mb - 0.00 in0.0 mm 0.00 in0.0 mm
04:35 AM 28.8°F-1.8°C 26.5°F-3.1°C 91% Calm Calm -- 30.42 in1030.1 mb - 0.00 in0.0 mm 0.00 in0.0 mm
04:40 AM 28.8°F-1.8°C 26.5°F-3.1°C 91% Calm Calm -- 30.42 in1030.1 mb - 0.00 in0.0 mm 0.00 in0.0 mm
04:45 AM 28.8°F-1.8°C 26.5°F-3.1°C 91% Calm Calm -- 30.42 in1030.1 mb - 0.00 in0.0 mm 0.00 in0.0 mm
04:50 AM 28.9°F-1.7°C 26.8°F-2.9°C 92% Calm Calm -- 30.43 in1030.5 mb - 0.00 in0.0 mm 0.00 in0.0 mm
04:55 AM 28.9°F-1.7°C 26.9°F-2.8°C 92% Calm Calm -- 30.43 in1030.5 mb - 0.00 in0.0 mm 0.00 in0.0 mm
05:00 AM 28.8°F-1.8°C 26.8°F-2.9°C 92% Calm Calm -- 30.43 in1030.5 mb - 0.00 in0.0 mm 0.00 in0.0 mm
05:05 AM 28.7°F-1.8°C 26.7°F-2.9°C 92% Calm Calm -- 30.44 in1030.8 mb - 0.00 in0.0 mm 0.00 in0.0 mm
05:10 AM 28.7°F-1.8°C 26.6°F-3.0°C 92% Calm Calm -- 30.44 in1030.8 mb - 0.00 in0.0 mm 0.00 in0.0 mm
05:15 AM 28.5°F-1.9°C 26.5°F-3.1°C 92% Calm Calm -- 30.43 in1030.5 mb - 0.00 in0.0 mm 0.00 in0.0 mm
05:20 AM 28.5°F-1.9°C 26.5°F-3.1°C 92% Calm Calm -- 30.43 in1030.5 mb - 0.00 in0.0 mm 0.00 in0.0 mm
05:25 AM 28.4°F-2.0°C 26.4°F-3.1°C 92% Calm Calm -- 30.44 in1030.8 mb - 0.00 in0.0 mm 0.00 in0.0 mm
05:30 AM 28.4°F-2.0°C 26.4°F-3.1°C 92% Calm Calm -- 30.43 in1030.5 mb - 0.00 in0.0 mm 0.00 in0.0 mm
05:35 AM 28.3°F-2.1°C 26.3°F-3.2°C 92% Calm Calm -- 30.44 in1030.8 mb - 0.00 in0.0 mm 0.00 in0.0 mm
05:40 AM 28.2°F-2.1°C 26.2°F-3.2°C 92% Calm Calm -- 30.44 in1030.8 mb - 0.00 in0.0 mm 0.00 in0.0 mm
05:45 AM 28.2°F-2.1°C 26.2°F-3.2°C 92% Calm Calm -- 30.44 in1030.8 mb - 0.00 in0.0 mm 0.00 in0.0 mm
05:50 AM 28.1°F-2.2°C 26.1°F-3.3°C 92% Calm Calm -- 30.44 in1030.8 mb - 0.00 in0.0 mm 0.00 in0.0 mm
05:55 AM 28.1°F-2.2°C 26.1°F-3.3°C 92% Calm Calm -- 30.44 in1030.8 mb - 0.00 in0.0 mm 0.00 in0.0 mm
06:00 AM 28.0°F-2.2°C 26.0°F-3.3°C 92% Calm Calm -- 30.45 in1031.2 mb - 0.00 in0.0 mm 0.00 in0.0 mm
06:05 AM 27.9°F-2.3°C 25.9°F-3.4°C 92% Calm Calm -- 30.45 in1031.2 mb - 0.00 in0.0 mm 0.00 in0.0 mm
06:10 AM 27.9°F-2.3°C 26.1°F-3.3°C 93% Calm Calm -- 30.45 in1031.2 mb - 0.00 in0.0 mm 0.00 in0.0 mm
06:15 AM 27.8°F-2.3°C 26.0°F-3.3°C 93% Calm Calm -- 30.45 in1031.2 mb - 0.00 in0.0 mm 0.00 in0.0 mm
06:20 AM 27.9°F-2.3°C 26.1°F-3.3°C 93% Calm Calm -- 30.44 in1030.8 mb - 0.00 in0.0 mm 0.00 in0.0 mm
06:25 AM 27.8°F-2.3°C 26.0°F-3.3°C 93% Calm Calm -- 30.44 in1030.8 mb - 0.00 in0.0 mm 0.00 in0.0 mm
06:30 AM 27.8°F-2.3°C 26.0°F-3.3°C 93% Calm Calm -- 30.44 in1030.8 mb - 0.00 in0.0 mm 0.00 in0.0 mm
06:35 AM 27.8°F-2.3°C 26.0°F-3.3°C 93% Calm Calm -- 30.44 in1030.8 mb - 0.00 in0.0 mm 0.00 in0.0 mm
06:40 AM 27.8°F-2.3°C 26.0°F-3.3°C 93% Calm Calm -- 30.44 in1030.8 mb - 0.00 in0.0 mm 0.00 in0.0 mm
06:45 AM 27.7°F-2.4°C 25.9°F-3.4°C 93% Calm Calm -- 30.44 in1030.8 mb - 0.00 in0.0 mm 0.00 in0.0 mm
06:50 AM 27.7°F-2.4°C 25.9°F-3.4°C 93% Calm Calm -- 30.44 in1030.8 mb - 0.00 in0.0 mm 0.00 in0.0 mm
06:55 AM 27.6°F-2.4°C 25.8°F-3.4°C 93% Calm Calm -- 30.44 in1030.8 mb - 0.00 in0.0 mm 0.00 in0.0 mm
07:00 AM 27.7°F-2.4°C 26.0°F-3.3°C 93% Calm Calm -- 30.44 in1030.8 mb - 0.00 in0.0 mm 0.00 in0.0 mm
07:05 AM 27.8°F-2.3°C 26.0°F-3.3°C 93% Calm Calm -- 30.43 in1030.5 mb - 0.00 in0.0 mm 0.00 in0.0 mm
07:10 AM 27.7°F-2.4°C 26.0°F-3.3°C 93% Calm Calm -- 30.43 in1030.5 mb - 0.00 in0.0 mm 0.00 in0.0 mm
07:15 AM 27.8°F-2.3°C 26.0°F-3.3°C 93% Calm Calm -- 30.43 in1030.5 mb - 0.00 in0.0 mm 0.00 in0.0 mm
07:20 AM 27.8°F-2.3°C 26.3°F-3.2°C 94% Calm Calm -- 30.44 in1030.8 mb - 0.00 in0.0 mm 0.00 in0.0 mm
07:25 AM 27.8°F-2.3°C 26.3°F-3.2°C 94% Calm Calm -- 30.44 in1030.8 mb - 0.00 in0.0 mm 0.00 in0.0 mm
07:30 AM 27.8°F-2.3°C 26.0°F-3.3°C 93% Calm Calm -- 30.44 in1030.8 mb - 0.00 in0.0 mm 0.00 in0.0 mm
07:35 AM 27.8°F-2.3°C 26.0°F-3.3°C 93% Calm Calm -- 30.44 in1030.8 mb - 0.00 in0.0 mm 0.00 in0.0 mm
07:40 AM 27.8°F-2.3°C 26.3°F-3.2°C 94% Calm Calm -- 30.44 in1030.8 mb - 0.00 in0.0 mm 0.00 in0.0 mm
07:45 AM 27.8°F-2.3°C 26.3°F-3.2°C 94% Calm Calm -- 30.43 in1030.5 mb - 0.00 in0.0 mm 0.00 in0.0 mm
07:50 AM 27.8°F-2.3°C 26.0°F-3.3°C 93% Calm Calm -- 30.44 in1030.8 mb - 0.00 in0.0 mm 0.00 in0.0 mm
07:55 AM 27.8°F-2.3°C 26.3°F-3.2°C 94% Calm Calm -- 30.43 in1030.5 mb - 0.00 in0.0 mm 0.00 in0.0 mm
08:00 AM 27.8°F-2.3°C 26.3°F-3.2°C 94% Calm Calm -- 30.44 in1030.8 mb - 0.00 in0.0 mm 0.00 in0.0 mm
08:05 AM 27.9°F-2.3°C 26.4°F-3.1°C 94% Calm Calm -- 30.44 in1030.8 mb - 0.00 in0.0 mm 0.00 in0.0 mm
08:10 AM 27.9°F-2.3°C 26.4°F-3.1°C 94% Calm Calm -- 30.44 in1030.8 mb - 0.00 in0.0 mm 0.00 in0.0 mm
08:15 AM 27.9°F-2.3°C 26.4°F-3.1°C 94% Calm Calm -- 30.44 in1030.8 mb - 0.00 in0.0 mm 0.00 in0.0 mm
08:20 AM 27.8°F-2.3°C 26.3°F-3.2°C 94% Calm Calm -- 30.44 in1030.8 mb - 0.00 in0.0 mm 0.00 in0.0 mm
08:25 AM 27.9°F-2.3°C 26.4°F-3.1°C 94% Calm Calm -- 30.44 in1030.8 mb - 0.00 in0.0 mm 0.00 in0.0 mm
08:30 AM 28.0°F-2.2°C 26.5°F-3.1°C 94% Calm Calm -- 30.44 in1030.8 mb - 0.00 in0.0 mm 0.00 in0.0 mm
08:35 AM 28.0°F-2.2°C 26.5°F-3.1°C 94% Calm Calm -- 30.44 in1030.8 mb - 0.00 in0.0 mm 0.00 in0.0 mm
08:40 AM 28.1°F-2.2°C 26.3°F-3.2°C 93% Calm Calm -- 30.45 in1031.2 mb - 0.00 in0.0 mm 0.00 in0.0 mm
08:45 AM 28.3°F-2.1°C 26.8°F-2.9°C 94% Calm Calm -- 30.45 in1031.2 mb - 0.00 in0.0 mm 0.00 in0.0 mm
08:50 AM 28.4°F-2.0°C 26.9°F-2.8°C 94% Calm Calm -- 30.45 in1031.2 mb - 0.00 in0.0 mm 0.00 in0.0 mm
08:55 AM 28.6°F-1.9°C 26.8°F-2.9°C 93% Calm Calm -- 30.45 in1031.2 mb - 0.00 in0.0 mm 0.00 in0.0 mm
09:00 AM 28.7°F-1.8°C 26.9°F-2.8°C 93% 1.2 mph NW1.9 kmh NW 2.3 mph3.7 kmh 30.45 in1031.2 mb - 0.00 in0.0 mm 0.00 in0.0 mm
09:05 AM 28.9°F-1.7°C 27.2°F-2.7°C 93% 2.3 mph N3.7 kmh N 3.5 mph5.6 kmh 30.45 in1031.2 mb - 0.00 in0.0 mm 0.00 in0.0 mm
09:10 AM 29.1°F-1.6°C 27.1°F-2.7°C 92% 1.2 mph NE1.9 kmh NE 2.3 mph3.7 kmh 30.44 in1030.8 mb - 0.00 in0.0 mm 0.00 in0.0 mm
09:15 AM 29.3°F-1.5°C 27.0°F-2.8°C 91% 2.3 mph ENE3.7 kmh ENE 3.5 mph5.6 kmh 30.44 in1030.8 mb - 0.00 in0.0 mm 0.00 in0.0 mm
09:20 AM 29.5°F-1.4°C 27.2°F-2.7°C 91% 1.2 mph ENE1.9 kmh ENE 3.5 mph5.6 kmh 30.44 in1030.8 mb - 0.00 in0.0 mm 0.00 in0.0 mm
09:25 AM 29.8°F-1.2°C 27.2°F-2.7°C 90% 2.3 mph ENE3.7 kmh ENE 5.8 mph9.3 kmh 30.44 in1030.8 mb - 0.00 in0.0 mm 0.00 in0.0 mm
09:30 AM 30.1°F-1.1°C 27.3°F-2.6°C 89% 4.6 mph NE7.4 kmh NE 6.9 mph11.1 kmh 30.44 in1030.8 mb - 0.00 in0.0 mm 0.00 in0.0 mm
09:35 AM 30.4°F-0.9°C 27.6°F-2.4°C 89% 3.5 mph NE5.6 kmh NE 4.6 mph7.4 kmh 30.44 in1030.8 mb - 0.00 in0.0 mm 0.00 in0.0 mm
09:40 AM 30.7°F-0.7°C 27.5°F-2.5°C 88% 6.9 mph NE11.1 kmh NE 8.1 mph13.0 kmh 30.44 in1030.8 mb - 0.00 in0.0 mm 0.00 in0.0 mm
09:45 AM 30.8°F-0.7°C 27.4°F-2.6°C 87% 4.6 mph NE7.4 kmh NE 6.9 mph11.1 kmh 30.43 in1030.5 mb - 0.00 in0.0 mm 0.00 in0.0 mm
09:50 AM 30.9°F-0.6°C 27.5°F-2.5°C 87% 5.8 mph NE9.3 kmh NE 6.9 mph11.1 kmh 30.43 in1030.5 mb - 0.00 in0.0 mm 0.00 in0.0 mm
09:55 AM 31.1°F-0.5°C 27.4°F-2.6°C 86% 3.5 mph NE5.6 kmh NE 4.6 mph7.4 kmh 30.44 in1030.8 mb - 0.00 in0.0 mm 0.00 in0.0 mm
10:00 AM 31.3°F-0.4°C 27.6°F-2.4°C 86% 1.2 mph ENE1.9 kmh ENE 2.3 mph3.7 kmh 30.43 in1030.5 mb - 0.00 in0.0 mm 0.00 in0.0 mm
10:05 AM 31.5°F-0.3°C 27.8°F-2.3°C 86% 4.6 mph NE7.4 kmh NE 5.8 mph9.3 kmh 30.44 in1030.8 mb - 0.00 in0.0 mm 0.00 in0.0 mm
10:10 AM 31.7°F-0.2°C 27.7°F-2.4°C 85% 2.3 mph NE3.7 kmh NE 2.3 mph3.7 kmh 30.43 in1030.5 mb - 0.00 in0.0 mm 0.00 in0.0 mm
10:15 AM 31.9°F-0.1°C 27.6°F-2.4°C 84% 2.3 mph ENE3.7 kmh ENE 4.6 mph7.4 kmh 30.43 in1030.5 mb - 0.00 in0.0 mm 0.00 in0.0 mm
10:20 AM 32.2°F0.1°C 27.6°F-2.4°C 83% 5.8 mph ENE9.3 kmh ENE 5.8 mph9.3 kmh 30.43 in1030.5 mb - 0.00 in0.0 mm 0.00 in0.0 mm
10:25 AM 32.4°F0.2°C 27.8°F-2.3°C 83% 4.6 mph NE7.4 kmh NE 4.6 mph7.4 kmh 30.44 in1030.8 mb - 0.00 in0.0 mm 0.00 in0.0 mm
10:30 AM 32.6°F0.3°C 27.7°F-2.4°C 82% Calm Calm -- 30.43 in1030.5 mb - 0.00 in0.0 mm 0.00 in0.0 mm
10:35 AM 32.7°F0.4°C 27.5°F-2.5°C 81% 2.3 mph E3.7 kmh E 4.6 mph7.4 kmh 30.43 in1030.5 mb - 0.00 in0.0 mm 0.00 in0.0 mm
10:40 AM 32.9°F0.5°C 27.7°F-2.4°C 81% 2.3 mph ESE3.7 kmh ESE 4.6 mph7.4 kmh 30.43 in1030.5 mb - 0.00 in0.0 mm 0.00 in0.0 mm
10:45 AM 33.1°F0.6°C 27.6°F-2.4°C 80% 4.6 mph ENE7.4 kmh ENE 6.9 mph11.1 kmh 30.42 in1030.1 mb - 0.00 in0.0 mm 0.00 in0.0 mm
10:50 AM 33.3°F0.7°C 27.8°F-2.3°C 80% 3.5 mph ENE5.6 kmh ENE 4.6 mph7.4 kmh 30.42 in1030.1 mb - 0.00 in0.0 mm 0.00 in0.0 mm
10:55 AM 33.4°F0.8°C 27.6°F-2.4°C 79% 4.6 mph ENE7.4 kmh ENE 5.8 mph9.3 kmh 30.42 in1030.1 mb - 0.00 in0.0 mm 0.00 in0.0 mm
11:00 AM 33.7°F0.9°C 27.6°F-2.4°C 78% 2.3 mph SE3.7 kmh SE 5.8 mph9.3 kmh 30.42 in1030.1 mb - 0.00 in0.0 mm 0.00 in0.0 mm
11:05 AM 34.1°F1.2°C 27.6°F-2.4°C 77% 1.2 mph SE1.9 kmh SE 2.3 mph3.7 kmh 30.42 in1030.1 mb - 0.00 in0.0 mm 0.00 in0.0 mm
11:10 AM 34.3°F1.3°C 27.5°F-2.5°C 76% 2.3 mph ENE3.7 kmh ENE 3.5 mph5.6 kmh 30.42 in1030.1 mb - 0.00 in0.0 mm 0.00 in0.0 mm
11:15 AM 34.4°F1.3°C 27.3°F-2.6°C 75% 4.6 mph E7.4 kmh E 6.9 mph11.1 kmh 30.42 in1030.1 mb - 0.00 in0.0 mm 0.00 in0.0 mm
11:20 AM 34.4°F1.3°C 27.3°F-2.6°C 75% 3.5 mph ESE5.6 kmh ESE 4.6 mph7.4 kmh 30.42 in1030.1 mb - 0.00 in0.0 mm 0.00 in0.0 mm
11:25 AM 34.4°F1.3°C 27.3°F-2.6°C 75% 1.2 mph ESE1.9 kmh ESE 3.5 mph5.6 kmh 30.42 in1030.1 mb - 0.00 in0.0 mm 0.00 in0.0 mm
11:30 AM 34.4°F1.3°C 27.3°F-2.6°C 75% 4.6 mph E7.4 kmh E 6.9 mph11.1 kmh 30.43 in1030.5 mb - 0.00 in0.0 mm 0.00 in0.0 mm
11:35 AM 34.4°F1.3°C 27.3°F-2.6°C 75% 1.2 mph E1.9 kmh E 3.5 mph5.6 kmh 30.43 in1030.5 mb - 0.00 in0.0 mm 0.00 in0.0 mm
11:40 AM 34.6°F1.4°C 27.5°F-2.5°C 75% Calm Calm 3.5 mph5.6 kmh 30.42 in1030.1 mb - 0.00 in0.0 mm 0.00 in0.0 mm
11:45 AM 34.9°F1.6°C 27.8°F-2.3°C 75% Calm Calm 2.3 mph3.7 kmh 30.42 in1030.1 mb - 0.00 in0.0 mm 0.00 in0.0 mm
11:50 AM 35.1°F1.7°C 27.6°F-2.4°C 74% Calm Calm -- 30.43 in1030.5 mb - 0.00 in0.0 mm 0.00 in0.0 mm
11:55 AM 35.2°F1.8°C 27.8°F-2.3°C 74% Calm Calm 3.5 mph5.6 kmh 30.43 in1030.5 mb - 0.00 in0.0 mm 0.00 in0.0 mm
12:00 PM 35.2°F1.8°C 28.1°F-2.2°C 75% Calm Calm -- 30.43 in1030.5 mb - 0.00 in0.0 mm 0.00 in0.0 mm
12:05 PM 35.3°F1.8°C 27.8°F-2.3°C 74% Calm Calm 2.3 mph3.7 kmh 30.42 in1030.1 mb - 0.00 in0.0 mm 0.00 in0.0 mm
12:10 PM 35.4°F1.9°C 27.9°F-2.3°C 74% 3.5 mph E5.6 kmh E 3.5 mph5.6 kmh 30.42 in1030.1 mb - 0.00 in0.0 mm 0.00 in0.0 mm
12:15 PM 35.4°F1.9°C 27.9°F-2.3°C 74% 1.2 mph SE1.9 kmh SE 1.2 mph1.9 kmh 30.42 in1030.1 mb - 0.00 in0.0 mm 0.00 in0.0 mm
12:20 PM 35.5°F1.9°C 28.0°F-2.2°C 74% 3.5 mph SE5.6 kmh SE 3.5 mph5.6 kmh 30.42 in1030.1 mb - 0.00 in0.0 mm 0.00 in0.0 mm
12:25 PM 35.6°F2.0°C 28.1°F-2.2°C 74% Calm Calm -- 30.42 in1030.1 mb - 0.00 in0.0 mm 0.00 in0.0 mm
12:30 PM 35.7°F2.1°C 28.2°F-2.1°C 74% 1.2 mph E1.9 kmh E 3.5 mph5.6 kmh 30.42 in1030.1 mb - 0.00 in0.0 mm 0.00 in0.0 mm
12:35 PM 35.4°F1.9°C 28.0°F-2.2°C 74% 1.2 mph E1.9 kmh E 3.5 mph5.6 kmh 30.42 in1030.1 mb - 0.00 in0.0 mm 0.00 in0.0 mm
12:40 PM 35.3°F1.8°C 27.8°F-2.3°C 74% 1.2 mph E1.9 kmh E 2.3 mph3.7 kmh 30.41 in1029.8 mb - 0.00 in0.0 mm 0.00 in0.0 mm
12:45 PM 35.3°F1.8°C 27.8°F-2.3°C 74% 1.2 mph E1.9 kmh E 3.5 mph5.6 kmh 30.41 in1029.8 mb - 0.00 in0.0 mm 0.00 in0.0 mm
12:50 PM 35.4°F1.9°C 27.9°F-2.3°C 74% Calm Calm 2.3 mph3.7 kmh 30.41 in1029.8 mb - 0.00 in0.0 mm 0.00 in0.0 mm
12:55 PM 35.6°F2.0°C 28.1°F-2.2°C 74% 2.3 mph S3.7 kmh S 3.5 mph5.6 kmh 30.41 in1029.8 mb - 0.00 in0.0 mm 0.00 in0.0 mm
01:00 PM 35.9°F2.2°C 28.4°F-2.0°C 74% 2.3 mph S3.7 kmh S 2.3 mph3.7 kmh 30.39 in1029.1 mb - 0.00 in0.0 mm 0.00 in0.0 mm
01:05 PM 36.2°F2.3°C 28.4°F-2.0°C 73% 2.3 mph E3.7 kmh E 6.9 mph11.1 kmh 30.39 in1029.1 mb - 0.00 in0.0 mm 0.00 in0.0 mm
01:10 PM 36.2°F2.3°C 28.4°F-2.0°C 73% 2.3 mph S3.7 kmh S 6.9 mph11.1 kmh 30.39 in1029.1 mb - 0.00 in0.0 mm 0.00 in0.0 mm
01:15 PM 36.3°F2.4°C 28.5°F-1.9°C 73% 1.2 mph SE1.9 kmh SE 3.5 mph5.6 kmh 30.39 in1029.1 mb - 0.00 in0.0 mm 0.00 in0.0 mm
01:20 PM 36.2°F2.3°C 28.4°F-2.0°C 73% Calm Calm -- 30.39 in1029.1 mb - 0.00 in0.0 mm 0.00 in0.0 mm
01:25 PM 36.2°F2.3°C 28.7°F-1.8°C 74% Calm Calm 2.3 mph3.7 kmh 30.38 in1028.8 mb - 0.00 in0.0 mm 0.00 in0.0 mm
01:30 PM 36.2°F2.3°C 28.4°F-2.0°C 73% Calm Calm -- 30.38 in1028.8 mb - 0.00 in0.0 mm 0.00 in0.0 mm
01:35 PM 36.3°F2.4°C 28.8°F-1.8°C 74% 1.2 mph SE1.9 kmh SE 2.3 mph3.7 kmh 30.38 in1028.8 mb - 0.00 in0.0 mm 0.00 in0.0 mm
01:40 PM 36.4°F2.4°C 28.6°F-1.9°C 73% 1.2 mph SSE1.9 kmh SSE 5.8 mph9.3 kmh 30.37 in1028.4 mb - 0.00 in0.0 mm 0.00 in0.0 mm
01:45 PM 36.5°F2.5°C 28.7°F-1.8°C 73% Calm Calm -- 30.37 in1028.4 mb - 0.00 in0.0 mm 0.00 in0.0 mm
01:50 PM 36.6°F2.6°C 28.8°F-1.8°C 73% 1.2 mph SSW1.9 kmh SSW 3.5 mph5.6 kmh 30.37 in1028.4 mb - 0.00 in0.0 mm 0.00 in0.0 mm
01:55 PM 36.7°F2.6°C 29.2°F-1.6°C 74% Calm Calm 3.5 mph5.6 kmh 30.36 in1028.1 mb - 0.00 in0.0 mm 0.00 in0.0 mm
02:00 PM 36.7°F2.6°C 29.2°F-1.6°C 74% Calm Calm -- 30.36 in1028.1 mb - 0.00 in0.0 mm 0.00 in0.0 mm
02:05 PM 36.7°F2.6°C 28.9°F-1.7°C 73% 2.3 mph S3.7 kmh S 3.5 mph5.6 kmh 30.36 in1028.1 mb - 0.00 in0.0 mm 0.00 in0.0 mm
02:10 PM 36.7°F2.6°C 28.9°F-1.7°C 73% 1.2 mph SSE1.9 kmh SSE -- 30.35 in1027.8 mb - 0.00 in0.0 mm 0.00 in0.0 mm
02:15 PM 36.8°F2.7°C 29.3°F-1.5°C 74% Calm Calm -- 30.35 in1027.8 mb - 0.00 in0.0 mm 0.00 in0.0 mm
02:20 PM 36.9°F2.7°C 29.4°F-1.4°C 74% 2.3 mph E3.7 kmh E 3.5 mph5.6 kmh 30.34 in1027.4 mb - 0.00 in0.0 mm 0.00 in0.0 mm
02:25 PM 36.9°F2.7°C 29.1°F-1.6°C 73% 2.3 mph S3.7 kmh S 2.3 mph3.7 kmh 30.35 in1027.8 mb - 0.00 in0.0 mm 0.00 in0.0 mm
02:30 PM 36.9°F2.7°C 29.4°F-1.4°C 74% Calm Calm -- 30.35 in1027.8 mb - 0.00 in0.0 mm 0.00 in0.0 mm
02:35 PM 37.0°F2.8°C 29.1°F-1.6°C 73% 2.3 mph S3.7 kmh S 3.5 mph5.6 kmh 30.34 in1027.4 mb - 0.00 in0.0 mm 0.00 in0.0 mm
02:40 PM 37.1°F2.8°C 29.2°F-1.6°C 73% 1.2 mph SSE1.9 kmh SSE 6.9 mph11.1 kmh 30.34 in1027.4 mb - 0.00 in0.0 mm 0.00 in0.0 mm
02:45 PM 37.1°F2.8°C 29.3°F-1.5°C 73% Calm Calm -- 30.34 in1027.4 mb - 0.00 in0.0 mm 0.00 in0.0 mm
02:50 PM 37.2°F2.9°C 29.3°F-1.5°C 73% Calm Calm -- 30.34 in1027.4 mb - 0.00 in0.0 mm 0.00 in0.0 mm
02:55 PM 37.1°F2.8°C 29.2°F-1.6°C 73% 1.2 mph SE1.9 kmh SE 3.5 mph5.6 kmh 30.34 in1027.4 mb - 0.00 in0.0 mm 0.00 in0.0 mm
03:00 PM 37.0°F2.8°C 29.5°F-1.4°C 74% 1.2 mph SSE1.9 kmh SSE 3.5 mph5.6 kmh 30.35 in1027.8 mb - 0.00 in0.0 mm 0.00 in0.0 mm
03:05 PM 37.0°F2.8°C 29.2°F-1.6°C 73% Calm Calm -- 30.34 in1027.4 mb - 0.00 in0.0 mm 0.00 in0.0 mm
03:10 PM 37.0°F2.8°C 29.5°F-1.4°C 74% Calm Calm -- 30.34 in1027.4 mb - 0.00 in0.0 mm 0.00 in0.0 mm
03:15 PM 37.1°F2.8°C 29.2°F-1.6°C 73% Calm Calm -- 30.34 in1027.4 mb - 0.00 in0.0 mm 0.00 in0.0 mm
03:20 PM 37.2°F2.9°C 29.4°F-1.4°C 73% Calm Calm -- 30.35 in1027.8 mb - 0.00 in0.0 mm 0.00 in0.0 mm
03:25 PM 37.3°F2.9°C 29.4°F-1.4°C 73% Calm Calm 3.5 mph5.6 kmh 30.35 in1027.8 mb - 0.00 in0.0 mm 0.00 in0.0 mm
03:30 PM 37.2°F2.9°C 29.7°F-1.3°C 74% Calm Calm -- 30.34 in1027.4 mb - 0.00 in0.0 mm 0.00 in0.0 mm
03:35 PM 37.1°F2.8°C 29.2°F-1.6°C 73% Calm Calm 2.3 mph3.7 kmh 30.34 in1027.4 mb - 0.00 in0.0 mm 0.00 in0.0 mm
03:40 PM 37.1°F2.8°C 29.2°F-1.6°C 73% Calm Calm -- 30.34 in1027.4 mb - 0.00 in0.0 mm 0.00 in0.0 mm
03:45 PM 37.2°F2.9°C 29.4°F-1.4°C 73% 2.3 mph S3.7 kmh S 2.3 mph3.7 kmh 30.34 in1027.4 mb - 0.00 in0.0 mm 0.00 in0.0 mm
03:50 PM 37.4°F3.0°C 29.5°F-1.4°C 73% Calm Calm -- 30.34 in1027.4 mb - 0.00 in0.0 mm 0.00 in0.0 mm
03:55 PM 37.3°F2.9°C 29.4°F-1.4°C 73% 1.2 mph SE1.9 kmh SE 3.5 mph5.6 kmh 30.34 in1027.4 mb - 0.00 in0.0 mm 0.00 in0.0 mm
04:00 PM 37.2°F2.9°C 29.4°F-1.4°C 73% Calm Calm -- 30.34 in1027.4 mb - 0.00 in0.0 mm 0.00 in0.0 mm
04:05 PM 37.3°F2.9°C 29.8°F-1.2°C 74% Calm Calm 1.2 mph1.9 kmh 30.33 in1027.1 mb - 0.00 in0.0 mm 0.00 in0.0 mm
04:10 PM 37.4°F3.0°C 29.5°F-1.4°C 73% Calm Calm -- 30.32 in1026.8 mb - 0.00 in0.0 mm 0.00 in0.0 mm
04:15 PM 37.5°F3.1°C 29.6°F-1.3°C 73% Calm Calm -- 30.32 in1026.8 mb - 0.00 in0.0 mm 0.00 in0.0 mm
04:20 PM 37.3°F2.9°C 29.4°F-1.4°C 73% 2.3 mph E3.7 kmh E 3.5 mph5.6 kmh 30.32 in1026.8 mb - 0.00 in0.0 mm 0.00 in0.0 mm
04:25 PM 37.3°F2.9°C 29.4°F-1.4°C 73% Calm Calm -- 30.32 in1026.8 mb - 0.00 in0.0 mm 0.00 in0.0 mm
04:30 PM 37.3°F2.9°C 29.8°F-1.2°C 74% Calm Calm -- 30.32 in1026.8 mb - 0.00 in0.0 mm 0.00 in0.0 mm
04:35 PM 37.3°F2.9°C 29.4°F-1.4°C 73% Calm Calm -- 30.32 in1026.8 mb - 0.00 in0.0 mm 0.00 in0.0 mm
04:40 PM 37.3°F2.9°C 29.8°F-1.2°C 74% Calm Calm -- 30.31 in1026.4 mb - 0.00 in0.0 mm 0.00 in0.0 mm
04:45 PM 37.3°F2.9°C 29.8°F-1.2°C 74% Calm Calm -- 30.31 in1026.4 mb - 0.00 in0.0 mm 0.00 in0.0 mm
04:50 PM 37.3°F2.9°C 29.8°F-1.2°C 74% Calm Calm 2.3 mph3.7 kmh 30.30 in1026.1 mb - 0.00 in0.0 mm 0.00 in0.0 mm
04:55 PM 37.2°F2.9°C 29.7°F-1.3°C 74% Calm Calm 1.2 mph1.9 kmh 30.30 in1026.1 mb - 0.00 in0.0 mm 0.00 in0.0 mm
05:00 PM 37.1°F2.8°C 29.9°F-1.2°C 75% Calm Calm 3.5 mph5.6 kmh 30.30 in1026.1 mb - 0.00 in0.0 mm 0.00 in0.0 mm
05:05 PM 37.0°F2.8°C 29.8°F-1.2°C 75% 1.2 mph SE1.9 kmh SE -- 30.30 in1026.1 mb - 0.00 in0.0 mm 0.00 in0.0 mm
05:10 PM 36.9°F2.7°C 29.7°F-1.3°C 75% 1.2 mph ESE1.9 kmh ESE 2.3 mph3.7 kmh 30.30 in1026.1 mb - 0.00 in0.0 mm 0.00 in0.0 mm
05:15 PM 36.8°F2.7°C 29.9°F-1.2°C 76% Calm Calm -- 30.29 in1025.7 mb - 0.00 in0.0 mm 0.00 in0.0 mm
05:20 PM 36.8°F2.7°C 29.9°F-1.2°C 76% Calm Calm -- 30.29 in1025.7 mb - 0.00 in0.0 mm 0.00 in0.0 mm
05:25 PM 36.6°F2.6°C 30.1°F-1.1°C 77% 1.2 mph E1.9 kmh E 2.3 mph3.7 kmh 30.29 in1025.7 mb - 0.00 in0.0 mm 0.00 in0.0 mm
05:30 PM 36.5°F2.5°C 30.6°F-0.8°C 79% 1.2 mph E1.9 kmh E 3.5 mph5.6 kmh 30.29 in1025.7 mb - 0.00 in0.0 mm 0.00 in0.0 mm
05:35 PM 36.2°F2.3°C 30.7°F-0.7°C 80% 1.2 mph E1.9 kmh E 2.3 mph3.7 kmh 30.28 in1025.4 mb - 0.00 in0.0 mm 0.00 in0.0 mm
05:40 PM 36.0°F2.2°C 31.0°F-0.6°C 82% Calm Calm -- 30.27 in1025.1 mb - 0.01 in0.3 mm 0.01 in0.3 mm
05:45 PM 35.7°F2.1°C 31.1°F-0.5°C 83% 1.2 mph E1.9 kmh E 2.3 mph3.7 kmh 30.27 in1025.1 mb - 0.00 in0.0 mm 0.01 in0.3 mm
05:50 PM 35.4°F1.9°C 31.1°F-0.5°C 84% Calm Calm -- 30.27 in1025.1 mb - 0.00 in0.0 mm 0.01 in0.3 mm
05:55 PM 35.2°F1.8°C 31.4°F-0.3°C 86% Calm Calm -- 30.26 in1024.7 mb - 0.00 in0.0 mm 0.01 in0.3 mm
06:00 PM 34.9°F1.6°C 31.4°F-0.3°C 87% Calm Calm -- 30.26 in1024.7 mb - 0.01 in0.3 mm 0.02 in0.5 mm
06:05 PM 34.7°F1.5°C 31.5°F-0.3°C 88% Calm Calm 2.3 mph3.7 kmh 30.26 in1024.7 mb - 0.00 in0.0 mm 0.02 in0.5 mm
06:10 PM 34.4°F1.3°C 31.2°F-0.4°C 88% 2.3 mph E3.7 kmh E 2.3 mph3.7 kmh 30.25 in1024.4 mb - 0.00 in0.0 mm 0.02 in0.5 mm
06:15 PM 34.4°F1.3°C 31.5°F-0.3°C 89% 1.2 mph E1.9 kmh E -- 30.25 in1024.4 mb - 0.00 in0.0 mm 0.02 in0.5 mm
06:20 PM 34.2°F1.2°C 31.6°F-0.2°C 90% 1.2 mph ENE1.9 kmh ENE 1.2 mph1.9 kmh 30.25 in1024.4 mb - 0.00 in0.0 mm 0.02 in0.5 mm
06:25 PM 34.1°F1.2°C 31.4°F-0.3°C 90% 2.3 mph E3.7 kmh E 3.5 mph5.6 kmh 30.24 in1024.0 mb - 0.01 in0.3 mm 0.03 in0.8 mm
06:30 PM 34.0°F1.1°C 31.6°F-0.2°C 91% Calm Calm 3.5 mph5.6 kmh 30.24 in1024.0 mb - 0.00 in0.0 mm 0.03 in0.8 mm
06:35 PM 33.9°F1.1°C 31.6°F-0.2°C 91% Calm Calm -- 30.24 in1024.0 mb - 0.00 in0.0 mm 0.03 in0.8 mm
06:40 PM 33.8°F1.0°C 31.5°F-0.3°C 91% 1.2 mph ENE1.9 kmh ENE 2.3 mph3.7 kmh 30.24 in1024.0 mb - 0.00 in0.0 mm 0.03 in0.8 mm
06:45 PM 33.8°F1.0°C 31.7°F-0.2°C 92% Calm Calm -- 30.24 in1024.0 mb - 0.00 in0.0 mm 0.03 in0.8 mm
06:50 PM 33.9°F1.1°C 31.8°F-0.1°C 92% 4.6 mph NE7.4 kmh NE 5.8 mph9.3 kmh 30.25 in1024.4 mb - 0.00 in0.0 mm 0.03 in0.8 mm
06:55 PM 33.9°F1.1°C 31.8°F-0.1°C 92% 3.5 mph NE5.6 kmh NE 4.6 mph7.4 kmh 30.25 in1024.4 mb - 0.00 in0.0 mm 0.03 in0.8 mm
07:00 PM 33.9°F1.1°C 31.8°F-0.1°C 92% 3.5 mph NE5.6 kmh NE 3.5 mph5.6 kmh 30.25 in1024.4 mb - 0.00 in0.0 mm 0.03 in0.8 mm
07:05 PM 33.9°F1.1°C 31.8°F-0.1°C 92% Calm Calm -- 30.26 in1024.7 mb - 0.00 in0.0 mm 0.03 in0.8 mm
07:10 PM 33.8°F1.0°C 31.7°F-0.2°C 92% Calm Calm -- 30.25 in1024.4 mb - 0.00 in0.0 mm 0.03 in0.8 mm
07:15 PM 33.7°F0.9°C 31.9°F-0.1°C 93% Calm Calm -- 30.25 in1024.4 mb - 0.01 in0.3 mm 0.04 in1.0 mm
07:20 PM 33.6°F0.9°C 31.8°F-0.1°C 93% Calm Calm -- 30.25 in1024.4 mb - 0.00 in0.0 mm 0.04 in1.0 mm
07:25 PM 33.5°F0.8°C 31.7°F-0.2°C 93% Calm Calm 1.2 mph1.9 kmh 30.26 in1024.7 mb - 0.00 in0.0 mm 0.04 in1.0 mm
07:30 PM 33.4°F0.8°C 31.9°F-0.1°C 94% Calm Calm -- 30.26 in1024.7 mb - 0.00 in0.0 mm 0.04 in1.0 mm
07:35 PM 33.4°F0.8°C 31.9°F-0.1°C 94% Calm Calm -- 30.26 in1024.7 mb - 0.00 in0.0 mm 0.04 in1.0 mm
07:40 PM 33.4°F0.8°C 31.9°F-0.1°C 94% Calm Calm -- 30.26 in1024.7 mb - 0.00 in0.0 mm 0.04 in1.0 mm
07:45 PM 33.4°F0.8°C 31.9°F-0.1°C 94% Calm Calm 1.2 mph1.9 kmh 30.26 in1024.7 mb - 0.01 in0.3 mm 0.05 in1.3 mm
07:50 PM 33.4°F0.8°C 31.9°F-0.1°C 94% Calm Calm -- 30.25 in1024.4 mb - 0.00 in0.0 mm 0.05 in1.3 mm
07:55 PM 33.3°F0.7°C 32.0°F0.0°C 95% 2.3 mph NE3.7 kmh NE 3.5 mph5.6 kmh 30.25 in1024.4 mb - 0.00 in0.0 mm 0.05 in1.3 mm
08:00 PM 33.4°F0.8°C 32.1°F0.1°C 95% 3.5 mph NE5.6 kmh NE 4.6 mph7.4 kmh 30.25 in1024.4 mb - 0.01 in0.3 mm 0.06 in1.5 mm
08:05 PM 33.3°F0.7°C 32.0°F0.0°C 95% 2.3 mph NE3.7 kmh NE 3.5 mph5.6 kmh 30.25 in1024.4 mb - 0.01 in0.3 mm 0.06 in1.5 mm
08:10 PM 33.3°F0.7°C 32.0°F0.0°C 95% 2.3 mph NE3.7 kmh NE 4.6 mph7.4 kmh 30.24 in1024.0 mb - 0.00 in0.0 mm 0.06 in1.5 mm
08:15 PM 33.3°F0.7°C 32.0°F0.0°C 95% 2.3 mph NE3.7 kmh NE 2.3 mph3.7 kmh 30.23 in1023.7 mb - 0.00 in0.0 mm 0.06 in1.5 mm
08:20 PM 33.3°F0.7°C 32.3°F0.2°C 96% 5.8 mph NE9.3 kmh NE 5.8 mph9.3 kmh 30.24 in1024.0 mb - 0.00 in0.0 mm 0.06 in1.5 mm
08:25 PM 33.3°F0.7°C 32.3°F0.2°C 96% 5.8 mph NE9.3 kmh NE 6.9 mph11.1 kmh 30.24 in1024.0 mb - 0.01 in0.3 mm 0.07 in1.8 mm
08:30 PM 33.3°F0.7°C 32.3°F0.2°C 96% 4.6 mph NE7.4 kmh NE 4.6 mph7.4 kmh 30.25 in1024.4 mb - 0.00 in0.0 mm 0.07 in1.8 mm
08:35 PM 33.3°F0.7°C 32.3°F0.2°C 96% Calm Calm -- 30.24 in1024.0 mb - 0.00 in0.0 mm 0.07 in1.8 mm
08:40 PM 33.2°F0.7°C 32.2°F0.1°C 96% 1.2 mph NE1.9 kmh NE 3.5 mph5.6 kmh 30.24 in1024.0 mb - 0.00 in0.0 mm 0.07 in1.8 mm
08:45 PM 33.1°F0.6°C 32.1°F0.1°C 96% Calm Calm -- 30.23 in1023.7 mb - 0.00 in0.0 mm 0.07 in1.8 mm
08:50 PM 33.2°F0.7°C 32.2°F0.1°C 96% 1.2 mph NE1.9 kmh NE 2.3 mph3.7 kmh 30.23 in1023.7 mb - 0.00 in0.0 mm 0.07 in1.8 mm
08:55 PM 33.2°F0.7°C 32.2°F0.1°C 96% 3.5 mph NE5.6 kmh NE 3.5 mph5.6 kmh 30.22 in1023.4 mb - 0.00 in0.0 mm 0.07 in1.8 mm
09:00 PM 33.2°F0.7°C 32.2°F0.1°C 96% 1.2 mph NE1.9 kmh NE 3.5 mph5.6 kmh 30.21 in1023.0 mb - 0.00 in0.0 mm 0.07 in1.8 mm
09:05 PM 33.2°F0.7°C 32.2°F0.1°C 96% 1.2 mph NE1.9 kmh NE 3.5 mph5.6 kmh 30.21 in1023.0 mb - 0.00 in0.0 mm 0.07 in1.8 mm
09:10 PM 33.1°F0.6°C 32.1°F0.1°C 96% 3.5 mph NE5.6 kmh NE 4.6 mph7.4 kmh 30.20 in1022.7 mb - 0.01 in0.3 mm 0.08 in2.0 mm
09:15 PM 33.1°F0.6°C 32.3°F0.2°C 97% 2.3 mph NE3.7 kmh NE 4.6 mph7.4 kmh 30.21 in1023.0 mb - 0.01 in0.3 mm 0.08 in2.0 mm
09:20 PM 33.1°F0.6°C 32.1°F0.1°C 96% 3.5 mph NE5.6 kmh NE 4.6 mph7.4 kmh 30.21 in1023.0 mb - 0.00 in0.0 mm 0.08 in2.0 mm
09:25 PM 33.1°F0.6°C 32.1°F0.1°C 96% Calm Calm 2.3 mph3.7 kmh 30.22 in1023.4 mb - 0.00 in0.0 mm 0.08 in2.0 mm
09:30 PM 33.1°F0.6°C 32.3°F0.2°C 97% Calm Calm -- 30.21 in1023.0 mb - 0.00 in0.0 mm 0.08 in2.0 mm
09:35 PM 33.1°F0.6°C 32.3°F0.2°C 97% Calm Calm 1.2 mph1.9 kmh 30.21 in1023.0 mb - 0.00 in0.0 mm 0.08 in2.0 mm
09:40 PM 33.1°F0.6°C 32.3°F0.2°C 97% 1.2 mph NE1.9 kmh NE 1.2 mph1.9 kmh 30.21 in1023.0 mb - 0.00 in0.0 mm 0.08 in2.0 mm
09:45 PM 33.1°F0.6°C 32.3°F0.2°C 97% Calm Calm 2.3 mph3.7 kmh 30.21 in1023.0 mb - 0.00 in0.0 mm 0.08 in2.0 mm
09:50 PM 33.1°F0.6°C 32.3°F0.2°C 97% Calm Calm -- 30.20 in1022.7 mb - 0.00 in0.0 mm 0.08 in2.0 mm
09:55 PM 33.1°F0.6°C 32.3°F0.2°C 97% Calm Calm -- 30.21 in1023.0 mb - 0.00 in0.0 mm 0.08 in2.0 mm
10:00 PM 33.1°F0.6°C 32.3°F0.2°C 97% Calm Calm 1.2 mph1.9 kmh 30.20 in1022.7 mb - 0.00 in0.0 mm 0.08 in2.0 mm
10:05 PM 33.1°F0.6°C 32.4°F0.2°C 97% Calm Calm -- 30.20 in1022.7 mb - 0.00 in0.0 mm 0.08 in2.0 mm
10:10 PM 33.2°F0.7°C 32.4°F0.2°C 97% 2.3 mph ENE3.7 kmh ENE 3.5 mph5.6 kmh 30.20 in1022.7 mb - 0.00 in0.0 mm 0.08 in2.0 mm
10:15 PM 33.2°F0.7°C 32.4°F0.2°C 97% 1.2 mph ENE1.9 kmh ENE 2.3 mph3.7 kmh 30.20 in1022.7 mb - 0.00 in0.0 mm 0.08 in2.0 mm
10:20 PM 33.2°F0.7°C 32.4°F0.2°C 97% Calm Calm -- 30.19 in1022.4 mb - 0.00 in0.0 mm 0.08 in2.0 mm
10:25 PM 33.2°F0.7°C 32.4°F0.2°C 97% 2.3 mph ENE3.7 kmh ENE 2.3 mph3.7 kmh 30.18 in1022.0 mb - 0.01 in0.3 mm 0.09 in2.3 mm
10:30 PM 33.2°F0.7°C 32.4°F0.2°C 97% 1.2 mph ENE1.9 kmh ENE 3.5 mph5.6 kmh 30.19 in1022.4 mb - 0.00 in0.0 mm 0.09 in2.3 mm
10:35 PM 33.2°F0.7°C 32.4°F0.2°C 97% 1.2 mph ENE1.9 kmh ENE 3.5 mph5.6 kmh 30.19 in1022.4 mb - 0.00 in0.0 mm 0.09 in2.3 mm
10:40 PM 33.2°F0.7°C 32.4°F0.2°C 97% Calm Calm 2.3 mph3.7 kmh 30.18 in1022.0 mb - 0.00 in0.0 mm 0.09 in2.3 mm
10:45 PM 33.2°F0.7°C 32.4°F0.2°C 97% 1.2 mph ENE1.9 kmh ENE 2.3 mph3.7 kmh 30.18 in1022.0 mb - 0.00 in0.0 mm 0.09 in2.3 mm
10:50 PM 33.2°F0.7°C 32.5°F0.3°C 97% 1.2 mph ENE1.9 kmh ENE 3.5 mph5.6 kmh 30.18 in1022.0 mb - 0.00 in0.0 mm 0.09 in2.3 mm
10:55 PM 33.2°F0.7°C 32.4°F0.2°C 97% 3.5 mph ENE5.6 kmh ENE 4.6 mph7.4 kmh 30.18 in1022.0 mb - 0.00 in0.0 mm 0.09 in2.3 mm
11:00 PM 33.2°F0.7°C 32.4°F0.2°C 97% Calm Calm -- 30.18 in1022.0 mb - 0.01 in0.3 mm 0.10 in2.5 mm
11:05 PM 33.2°F0.7°C 32.4°F0.2°C 97% Calm Calm 2.3 mph3.7 kmh 30.18 in1022.0 mb - 0.00 in0.0 mm 0.10 in2.5 mm
11:10 PM 33.2°F0.7°C 32.4°F0.2°C 97% Calm Calm -- 30.18 in1022.0 mb - 0.00 in0.0 mm 0.10 in2.5 mm
11:15 PM 33.2°F0.7°C 32.4°F0.2°C 97% Calm Calm -- 30.17 in1021.7 mb - 0.00 in0.0 mm 0.10 in2.5 mm
11:20 PM 33.2°F0.7°C 32.5°F0.3°C 97% Calm Calm -- 30.17 in1021.7 mb - 0.00 in0.0 mm 0.10 in2.5 mm
11:25 PM 33.2°F0.7°C 32.4°F0.2°C 97% 2.3 mph ENE3.7 kmh ENE 4.6 mph7.4 kmh 30.16 in1021.3 mb - 0.00 in0.0 mm 0.10 in2.5 mm
11:30 PM 33.2°F0.7°C 32.4°F0.2°C 97% Calm Calm -- 30.16 in1021.3 mb - 0.00 in0.0 mm 0.10 in2.5 mm
11:35 PM 33.2°F0.7°C 32.4°F0.2°C 97% 1.2 mph ENE1.9 kmh ENE 3.5 mph5.6 kmh 30.15 in1021.0 mb - 0.00 in0.0 mm 0.10 in2.5 mm
11:40 PM 33.2°F0.7°C 32.7°F0.4°C 98% 4.6 mph ENE7.4 kmh ENE 6.9 mph11.1 kmh 30.14 in1020.7 mb - 0.00 in0.0 mm 0.10 in2.5 mm
11:45 PM 33.2°F0.7°C 32.7°F0.4°C 98% 2.3 mph E3.7 kmh E 4.6 mph7.4 kmh 30.14 in1020.7 mb - 0.00 in0.0 mm 0.10 in2.5 mm
11:50 PM 33.2°F0.7°C 32.7°F0.4°C 98% Calm Calm 3.5 mph5.6 kmh 30.14 in1020.7 mb - 0.01 in0.3 mm 0.11 in2.8 mm
11:55 PM 33.2°F0.7°C 32.7°F0.4°C 98% 2.3 mph ENE3.7 kmh ENE 4.6 mph7.4 kmh 30.13 in1020.3 mb - 0.00 in0.0 mm 0.11 in2.8 mm